AirNav   Textron
 
 1014 users online  

TN93 Gateway Medical Center Heliport
Clarksville, Tennessee, USA


FAA INFORMATION EFFECTIVE 20 JULY 2017

Location

FAA Identifier: TN93
Lat/Long: 36-34-50.2800N / 087-16-09.8000W
36-34.838000N / 087-16.163333W
36.5806333 / -87.2693889
(estimated)
Elevation: 516 ft. / 157 m (estimated)
From city: 5 miles NE of CLARKSVILLE, TN
Time zone: UTC -5 (UTC -6 during Standard Time)
Zip code: 37040

Heliport Operations

Heliport use: Private use. Permission required prior to landing
Activation date: 09/2011
Control tower: no
ARTCC: MEMPHIS CENTER
FSS: JACKSON FLIGHT SERVICE STATION
NOTAMs facility: FDC (NOTAM-D service not available)
Attendance: UNATNDD
Wind indicator: lighted
Segmented circle: no
Lights: SS-SR

Heliport Communications

WX ASOS at CKV (7 nm W): 134.575 (931-431-3045)
WX AWOS-3 at EOD (10 nm W): PHONE 270-956-3100
WX AWOS-3 at M91 (17 nm E): 120.675 (615-384-8206)
WX AWOS-3 at HVC (19 nm NW): 132.575 (270-886-6311)

Nearby radio navigation aids

VOR radial/distance  VOR name  Freq  Var
CKVr111/7.3CLARKSVILLE VOR/DME110.6001W
BNAr315/38.8NASHVILLE VORTAC114.1002W

 
NDB name  Hdg/Dist  Freq  Var  ID
AIRBE144/11.727301WFK ..-. -.-
DICKSON017/28.320301WDMZ -.. -- --..

Heliport Services

Runway Information

Helipad H1

Dimensions: 40 x 40 ft. / 12 x 12 m
Surface: concrete
Runway edge lights: PERI
PERI & FLD LGTS.
Latitude: 36-34.838000N
Longitude: 087-16.163333W
Elevation: 516.0 ft.
Traffic pattern: leftleft

Heliport Ownership and Management from official FAA records

Ownership: Privately-owned
Owner: GATEWAY MEDICAL CENTER
651 DUNLOP LANE
CLARKSVILLE, TN 37040
Phone 931-502-1000
Manager: MIKE HOLZKAMPER
651 DUNLOP LANE
CLARKSVILLE, TN 37040
Phone 931-502-1900
FAX# 931-502-1905

Instrument Procedures

There are no published instrument procedures at TN93.

Some nearby airports with instrument procedures:

KCKV - Outlaw Field Airport (7 nm W)
KEOD - Sabre Army Airfield (Fort Campbell) (10 nm W)
KHOP - Campbell Army Airfield (Fort Campbell) (12 nm NW)
M91 - Springfield Robertson County Airport (17 nm E)
KHVC - Hopkinsville-Christian County Airport (19 nm NW)
 
Loc | Ops | Rwys | IFR | FBO | Links
Com | Nav | Svcs | Stats | Notes


 
Aerial photo
No photo
 
Airport distance calculator
Flying to Gateway Medical Center Heliport? Find the distance to fly.

From to TN93

Sunrise and sunset
Times for 24-Jul-2017
 Local
(UTC-5)
 Zulu
(UTC)
Morning civil twilight05:2110:21
Sunrise05:5010:50
Sunset20:0101:01
Evening civil twilight20:3001:30

Current date and time
Zulu (UTC)  25-Jul-2017 01:04:37
Local (UTC-5)  24-Jul-2017 20:04:37
 
METAR
KCKV 
7nm W 
250052Z AUTO 23003KT 10SM CLR 29/22 A2996 RMK AO2 LTG DSNT NW-NE SLP138 T02890217
KEOD 
10nm W 
250058Z AUTO 23004KT 10SM FEW130 30/23 A2996 RMK AO2 LTG DSNT N SLP142 T02950230
KHOP 
12nm NW 
250058Z AUTO 22004KT 10SM FEW130 29/24 A2995 RMK AO2 SLP138 T02910237
KM91 
17nm E 
250055Z AUTO 00000KT 10SM CLR 27/25 A2995 RMK A01
TAF
KCKV 
7nm W 
241720Z 2418/2518 22005KT P6SM SCT040 BKN250 FM250900 04002KT 4SM BR SCT250 FM251400 08004KT P6SM SCT250
KHOP 
12nm NW 
250003Z 2500/2606 VRB06KT 9999 SKC QNH2993INS BECMG 2501/2502 VRB06KT 8000 -SHRA SCT035 BKN050 QNH2990INS TEMPO 2502/2504 25012G18KT 4800 -TSRA BKN035CB BECMG 2505/2506 VRB06KT 9999 NSW SCT035 BKN050 QNH2997INS TEMPO 2518/2521 VRB15G25KT 6000 -TSRA BKN035CB OVC045 TX32/2518Z TN22/2509Z
NOTAMs
Click for the latest NOTAMs
NOTAMs are issued by the DoD/FAA and will open in a separate window not controlled by AirNav.

 

 
 

Would you like to see your business listed on this page?

 If your business provides an interesting product or service to pilots, flight crews, aircraft, or users of the Gateway Medical Center Heliport, you should consider listing it here.  To start the listing process, click on the button below
 
Add a business
 

Other Pages about Gateway Medical Center Heliport

Update a link
 
Copyright © AirNav, LLC. All rights reserved. Privacy Policy  Contact